sensor_id;sensor_type;location;lat;lon;timestamp;pressure;altitude;pressure_sealevel;temperature;humidity
56811;BME280;42691;47.234;27.494;2022-07-03T00:01:41;99957.75;;;26.77;100.00
56811;BME280;42691;47.234;27.494;2022-07-03T00:04:07;99948.09;;;26.68;100.00
56811;BME280;42691;47.234;27.494;2022-07-03T00:06:33;99955.25;;;26.68;100.00
56811;BME280;42691;47.234;27.494;2022-07-03T00:09:00;99948.78;;;26.62;100.00
56811;BME280;42691;47.234;27.494;2022-07-03T00:11:26;99950.09;;;26.66;100.00
56811;BME280;42691;47.234;27.494;2022-07-03T00:13:52;99955.44;;;26.66;100.00
56811;BME280;42691;47.234;27.494;2022-07-03T00:16:17;99957.63;;;26.63;100.00
56811;BME280;42691;47.234;27.494;2022-07-03T00:18:43;99951.13;;;26.57;100.00
56811;BME280;42691;47.234;27.494;2022-07-03T00:21:10;99954.78;;;26.56;100.00
56811;BME280;42691;47.234;27.494;2022-07-03T00:23:40;99962.16;;;26.54;100.00
56811;BME280;42691;47.234;27.494;2022-07-03T00:26:07;99955.81;;;26.47;100.00
56811;BME280;42691;47.234;27.494;2022-07-03T00:28:34;99959.84;;;26.43;100.00
56811;BME280;42691;47.234;27.494;2022-07-03T00:31:00;99960.16;;;26.40;100.00
56811;BME280;42691;47.234;27.494;2022-07-03T00:33:27;99959.00;;;26.34;100.00
56811;BME280;42691;47.234;27.494;2022-07-03T00:35:54;99950.81;;;26.36;100.00
56811;BME280;42691;47.234;27.494;2022-07-03T00:38:21;99962.16;;;26.38;100.00
56811;BME280;42691;47.234;27.494;2022-07-03T00:40:47;99953.47;;;26.28;100.00
56811;BME280;42691;47.234;27.494;2022-07-03T00:43:15;99925.31;;;26.09;100.00
56811;BME280;42691;47.234;27.494;2022-07-03T00:45:45;99960.13;;;26.24;100.00
56811;BME280;42691;47.234;27.494;2022-07-03T00:48:13;99962.13;;;26.22;100.00
56811;BME280;42691;47.234;27.494;2022-07-03T00:50:44;99958.16;;;26.17;100.00
56811;BME280;42691;47.234;27.494;2022-07-03T00:53:12;99947.81;;;26.06;100.00
56811;BME280;42691;47.234;27.494;2022-07-03T00:55:39;99963.97;;;26.13;100.00
56811;BME280;42691;47.234;27.494;2022-07-03T00:58:06;99952.97;;;26.00;100.00
56811;BME280;42691;47.234;27.494;2022-07-03T01:00:34;99951.97;;;25.93;100.00
56811;BME280;42691;47.234;27.494;2022-07-03T01:03:05;99953.78;;;25.84;100.00
56811;BME280;42691;47.234;27.494;2022-07-03T01:05:32;99953.47;;;25.87;100.00
56811;BME280;42691;47.234;27.494;2022-07-03T01:10:47;99948.47;;;25.84;100.00
56811;BME280;42691;47.234;27.494;2022-07-03T01:16:38;99940.13;;;25.79;100.00
56811;BME280;42691;47.234;27.494;2022-07-03T01:22:16;99927.41;;;25.56;100.00
56811;BME280;42691;47.234;27.494;2022-07-03T01:28:03;99923.06;;;25.55;100.00
56811;BME280;42691;47.234;27.494;2022-07-03T01:30:41;99924.91;;;25.63;100.00
56811;BME280;42691;47.234;27.494;2022-07-03T01:33:09;99923.75;;;25.58;100.00
56811;BME280;42691;47.234;27.494;2022-07-03T01:35:41;99910.41;;;25.58;100.00
56811;BME280;42691;47.234;27.494;2022-07-03T01:38:13;99916.41;;;25.60;100.00
56811;BME280;42691;47.234;27.494;2022-07-03T01:40:40;99914.25;;;25.63;100.00
56811;BME280;42691;47.234;27.494;2022-07-03T01:43:11;99920.75;;;25.61;100.00
56811;BME280;42691;47.234;27.494;2022-07-03T01:45:41;99917.75;;;25.55;100.00
56811;BME280;42691;47.234;27.494;2022-07-03T01:48:10;99926.72;;;25.54;100.00
56811;BME280;42691;47.234;27.494;2022-07-03T01:50:36;99922.91;;;25.57;100.00
56811;BME280;42691;47.234;27.494;2022-07-03T01:53:03;99921.25;;;25.56;100.00
56811;BME280;42691;47.234;27.494;2022-07-03T01:55:32;99924.41;;;25.51;100.00
56811;BME280;42691;47.234;27.494;2022-07-03T01:57:59;99915.91;;;25.48;100.00
56811;BME280;42691;47.234;27.494;2022-07-03T02:00:25;99920.06;;;25.50;100.00
56811;BME280;42691;47.234;27.494;2022-07-03T02:03:03;99922.91;;;25.49;100.00
56811;BME280;42691;47.234;27.494;2022-07-03T02:05:44;99930.38;;;25.37;100.00
56811;BME280;42691;47.234;27.494;2022-07-03T02:19:14;99919.72;;;25.37;100.00
56811;BME280;42691;47.234;27.494;2022-07-03T02:21:50;99925.72;;;25.39;100.00
56811;BME280;42691;47.234;27.494;2022-07-03T02:24:19;99922.38;;;25.29;100.00
56811;BME280;42691;47.234;27.494;2022-07-03T02:27:15;99922.38;;;25.29;100.00
56811;BME280;42691;47.234;27.494;2022-07-03T02:30:01;99926.66;;;25.22;100.00
56811;BME280;42691;47.234;27.494;2022-07-03T02:32:28;99935.13;;;25.17;100.00
56811;BME280;42691;47.234;27.494;2022-07-03T02:35:02;99928.31;;;25.23;100.00
56811;BME280;42691;47.234;27.494;2022-07-03T02:37:30;99931.47;;;25.18;100.00
56811;BME280;42691;47.234;27.494;2022-07-03T02:43:15;99927.66;;;25.21;100.00
56811;BME280;42691;47.234;27.494;2022-07-03T02:45:55;99927.63;;;25.13;100.00
56811;BME280;42691;47.234;27.494;2022-07-03T02:48:29;99929.63;;;25.19;100.00
56811;BME280;42691;47.234;27.494;2022-07-03T02:51:02;99920.81;;;25.18;100.00
56811;BME280;42691;47.234;27.494;2022-07-03T02:54:02;99927.47;;;25.22;100.00
56811;BME280;42691;47.234;27.494;2022-07-03T02:59:18;99925.63;;;25.15;100.00
56811;BME280;42691;47.234;27.494;2022-07-03T03:07:32;99929.31;;;25.22;100.00
56811;BME280;42691;47.234;27.494;2022-07-03T03:09:48;99935.31;;;25.24;100.00
56811;BME280;42691;47.234;27.494;2022-07-03T03:12:14;99934.31;;;25.25;100.00
56811;BME280;42691;47.234;27.494;2022-07-03T03:14:43;99941.47;;;25.24;100.00
56811;BME280;42691;47.234;27.494;2022-07-03T03:17:16;99943.34;;;25.32;100.00
56811;BME280;42691;47.234;27.494;2022-07-03T03:19:51;99948.34;;;25.35;100.00
56811;BME280;42691;47.234;27.494;2022-07-03T03:25:02;99949.34;;;25.34;100.00
56811;BME280;42691;47.234;27.494;2022-07-03T03:27:28;99954.81;;;25.33;100.00
56811;BME280;42691;47.234;27.494;2022-07-03T03:29:54;99949.00;;;25.29;100.00
56811;BME280;42691;47.234;27.494;2022-07-03T03:32:21;99941.69;;;25.31;100.00
56811;BME280;42691;47.234;27.494;2022-07-03T03:34:47;99943.19;;;25.34;100.00
56811;BME280;42691;47.234;27.494;2022-07-03T03:37:14;99952.34;;;25.39;100.00
56811;BME280;42691;47.234;27.494;2022-07-03T03:39:40;99950.97;;;25.27;100.00
56811;BME280;42691;47.234;27.494;2022-07-03T03:42:06;99960.00;;;25.34;100.00
56811;BME280;42691;47.234;27.494;2022-07-03T03:44:33;99960.34;;;25.39;100.00
56811;BME280;42691;47.234;27.494;2022-07-03T03:46:59;99965.00;;;25.45;100.00
56811;BME280;42691;47.234;27.494;2022-07-03T03:49:24;99966.03;;;25.52;100.00
56811;BME280;42691;47.234;27.494;2022-07-03T03:51:50;99969.03;;;25.58;100.00
56811;BME280;42691;47.234;27.494;2022-07-03T03:54:15;99961.38;;;25.54;100.00
56811;BME280;42691;47.234;27.494;2022-07-03T03:56:41;99959.03;;;25.60;100.00
56811;BME280;42691;47.234;27.494;2022-07-03T03:59:06;99967.03;;;25.60;100.00
56811;BME280;42691;47.234;27.494;2022-07-03T04:01:32;99965.78;;;25.72;100.00
56811;BME280;42691;47.234;27.494;2022-07-03T04:03:57;99966.63;;;25.89;100.00
56811;BME280;42691;47.234;27.494;2022-07-03T04:06:25;99968.13;;;25.91;100.00
56811;BME280;42691;47.234;27.494;2022-07-03T04:08:51;99966.81;;;26.11;100.00
56811;BME280;42691;47.234;27.494;2022-07-03T04:11:16;99969.97;;;26.23;100.00
56811;BME280;42691;47.234;27.494;2022-07-03T04:13:42;99973.16;;;26.35;100.00
56811;BME280;42691;47.234;27.494;2022-07-03T04:16:07;99964.81;;;26.13;100.00
56811;BME280;42691;47.234;27.494;2022-07-03T04:18:33;99967.66;;;26.04;100.00
56811;BME280;42691;47.234;27.494;2022-07-03T04:20:59;99962.66;;;26.09;100.00
56811;BME280;42691;47.234;27.494;2022-07-03T04:23:24;99960.50;;;26.04;100.00
56811;BME280;42691;47.234;27.494;2022-07-03T04:25:50;99961.66;;;26.10;100.00
56811;BME280;42691;47.234;27.494;2022-07-03T04:28:15;99964.16;;;26.11;100.00
56811;BME280;42691;47.234;27.494;2022-07-03T04:30:41;99967.16;;;26.16;100.00
56811;BME280;42691;47.234;27.494;2022-07-03T04:33:06;99957.47;;;26.15;100.00
56811;BME280;42691;47.234;27.494;2022-07-03T04:35:32;99958.16;;;26.17;100.00
56811;BME280;42691;47.234;27.494;2022-07-03T04:37:58;99954.16;;;26.13;100.00
56811;BME280;42691;47.234;27.494;2022-07-03T04:40:23;99950.47;;;26.14;100.00
56811;BME280;42691;47.234;27.494;2022-07-03T04:42:48;99954.31;;;26.20;100.00
56811;BME280;42691;47.234;27.494;2022-07-03T04:45:14;99949.97;;;26.19;100.00
56811;BME280;42691;47.234;27.494;2022-07-03T04:47:39;99946.97;;;26.22;100.00
56811;BME280;42691;47.234;27.494;2022-07-03T04:50:05;99950.13;;;26.26;100.00
56811;BME280;42691;47.234;27.494;2022-07-03T04:52:31;99953.81;;;26.25;100.00
56811;BME280;42691;47.234;27.494;2022-07-03T04:54:56;99949.47;;;26.24;100.00
56811;BME280;42691;47.234;27.494;2022-07-03T04:57:22;99941.97;;;26.19;100.00
56811;BME280;42691;47.234;27.494;2022-07-03T04:59:48;99947.81;;;26.23;100.00
56811;BME280;42691;47.234;27.494;2022-07-03T05:02:13;99951.28;;;26.31;100.00
56811;BME280;42691;47.234;27.494;2022-07-03T05:04:39;99954.13;;;26.22;100.00
56811;BME280;42691;47.234;27.494;2022-07-03T05:07:04;99953.63;;;26.26;100.00
56811;BME280;42691;47.234;27.494;2022-07-03T05:09:30;99937.47;;;26.20;100.00
56811;BME280;42691;47.234;27.494;2022-07-03T05:11:55;99952.47;;;26.12;100.00
56811;BME280;42691;47.234;27.494;2022-07-03T05:14:21;99956.81;;;26.22;100.00
56811;BME280;42691;47.234;27.494;2022-07-03T05:16:46;99959.47;;;26.30;100.00
56811;BME280;42691;47.234;27.494;2022-07-03T05:19:12;99957.31;;;26.25;100.00
56811;BME280;42691;47.234;27.494;2022-07-03T05:21:37;99951.78;;;26.27;100.00
56811;BME280;42691;47.234;27.494;2022-07-03T05:24:03;99965.13;;;26.27;100.00
56811;BME280;42691;47.234;27.494;2022-07-03T05:26:28;99965.13;;;26.27;100.00
56811;BME280;42691;47.234;27.494;2022-07-03T05:28:54;99963.78;;;26.31;100.00
56811;BME280;42691;47.234;27.494;2022-07-03T05:31:20;99959.13;;;26.33;100.00
56811;BME280;42691;47.234;27.494;2022-07-03T05:33:45;99957.81;;;26.37;100.00
56811;BME280;42691;47.234;27.494;2022-07-03T05:36:11;99962.78;;;26.32;100.00
56811;BME280;42691;47.234;27.494;2022-07-03T05:38:36;99965.50;;;26.40;100.00
56811;BME280;42691;47.234;27.494;2022-07-03T05:41:20;99966.50;;;26.47;100.00
56811;BME280;42691;47.234;27.494;2022-07-03T05:43:45;99974.81;;;26.52;100.00
56811;BME280;42691;47.234;27.494;2022-07-03T05:46:11;99966.50;;;26.47;100.00
56811;BME280;42691;47.234;27.494;2022-07-03T05:48:37;99977.81;;;26.49;100.00
56811;BME280;42691;47.234;27.494;2022-07-03T05:51:02;99972.47;;;26.57;100.00
56811;BME280;42691;47.234;27.494;2022-07-03T05:53:28;99973.78;;;26.61;100.00
56811;BME280;42691;47.234;27.494;2022-07-03T05:55:54;99974.31;;;26.57;100.00
56811;BME280;42691;47.234;27.494;2022-07-03T05:58:19;99963.97;;;26.62;100.00
56811;BME280;42691;47.234;27.494;2022-07-03T06:00:45;99970.78;;;26.64;100.00
56811;BME280;42691;47.234;27.494;2022-07-03T06:03:11;99974.78;;;26.68;100.00
56811;BME280;42691;47.234;27.494;2022-07-03T06:05:36;99969.75;;;26.82;100.00
56811;BME280;42691;47.234;27.494;2022-07-03T06:08:02;99971.09;;;26.86;100.00
56811;BME280;42691;47.234;27.494;2022-07-03T06:10:28;99974.25;;;26.89;100.00
56811;BME280;42691;47.234;27.494;2022-07-03T06:12:54;99970.38;;;26.92;100.00
56811;BME280;42691;47.234;27.494;2022-07-03T06:15:20;99973.53;;;27.03;100.00
56811;BME280;42691;47.234;27.494;2022-07-03T06:17:45;99980.69;;;27.11;100.00
56811;BME280;42691;47.234;27.494;2022-07-03T06:20:11;99986.03;;;27.11;100.00
56811;BME280;42691;47.234;27.494;2022-07-03T06:22:37;99981.34;;;27.21;100.00
56811;BME280;42691;47.234;27.494;2022-07-03T06:25:03;99980.84;;;27.18;100.00
56811;BME280;42691;47.234;27.494;2022-07-03T06:27:29;99979.66;;;27.20;100.00
56811;BME280;42691;47.234;27.494;2022-07-03T06:29:54;99985.84;;;27.21;100.00
56811;BME280;42691;47.234;27.494;2022-07-03T06:32:20;99975.66;;;27.24;100.00
56811;BME280;42691;47.234;27.494;2022-07-03T06:34:46;99982.31;;;27.28;100.00
56811;BME280;42691;47.234;27.494;2022-07-03T06:37:12;99982.75;;;27.71;100.00
56811;BME280;42691;47.234;27.494;2022-07-03T06:39:38;99992.31;;;27.96;100.00
56811;BME280;42691;47.234;27.494;2022-07-03T06:42:04;99980.03;;;27.79;100.00
56811;BME280;42691;47.234;27.494;2022-07-03T06:44:29;99979.56;;;27.76;100.00
56811;BME280;42691;47.234;27.494;2022-07-03T06:46:55;99978.66;;;27.83;100.00
56811;BME280;42691;47.234;27.494;2022-07-03T06:49:21;99975.25;;;27.97;100.00
56811;BME280;42691;47.234;27.494;2022-07-03T06:51:47;99974.53;;;28.03;100.00
56811;BME280;42691;47.234;27.494;2022-07-03T06:54:12;99976.00;;;28.06;100.00
56811;BME280;42691;47.234;27.494;2022-07-03T06:56:38;99977.41;;;28.17;100.00
56811;BME280;42691;47.234;27.494;2022-07-03T06:59:04;99981.09;;;28.16;100.00
56811;BME280;42691;47.234;27.494;2022-07-03T07:01:29;99975.84;;;28.22;100.00
56811;BME280;42691;47.234;27.494;2022-07-03T07:03:55;99971.34;;;28.23;100.00
56811;BME280;42691;47.234;27.494;2022-07-03T07:06:21;99977.69;;;28.30;100.00
56811;BME280;42691;47.234;27.494;2022-07-03T07:08:47;99967.44;;;28.33;100.00
56811;BME280;42691;47.234;27.494;2022-07-03T07:11:13;99965.53;;;28.42;100.00
56811;BME280;42691;47.234;27.494;2022-07-03T07:13:38;99969.31;;;28.48;100.00
56811;BME280;42691;47.234;27.494;2022-07-03T07:16:04;99972.09;;;28.54;100.00
56811;BME280;42691;47.234;27.494;2022-07-03T07:18:29;99971.53;;;28.59;100.00
56811;BME280;42691;47.234;27.494;2022-07-03T07:20:55;99967.75;;;28.53;100.00
56811;BME280;42691;47.234;27.494;2022-07-03T07:23:20;99965.16;;;28.45;100.00
56811;BME280;42691;47.234;27.494;2022-07-03T07:25:46;99971.72;;;28.57;100.00
56811;BME280;42691;47.234;27.494;2022-07-03T07:28:11;99970.97;;;28.49;100.00
56811;BME280;42691;47.234;27.494;2022-07-03T07:30:37;99969.69;;;28.45;100.00
56811;BME280;42691;47.234;27.494;2022-07-03T07:33:05;99970.88;;;28.42;100.00
56811;BME280;42691;47.234;27.494;2022-07-03T07:35:31;99973.28;;;28.37;100.00
56811;BME280;42691;47.234;27.494;2022-07-03T07:37:56;99973.03;;;28.24;100.00
56811;BME280;42691;47.234;27.494;2022-07-03T07:40:22;99972.44;;;28.14;100.00
56811;BME280;42691;47.234;27.494;2022-07-03T07:42:47;99973.16;;;28.08;100.00
56811;BME280;42691;47.234;27.494;2022-07-03T07:45:13;99978.13;;;28.11;100.00
56811;BME280;42691;47.234;27.494;2022-07-03T07:47:38;99976.19;;;28.05;100.00
56811;BME280;42691;47.234;27.494;2022-07-03T07:50:04;99971.50;;;28.07;100.00
56811;BME280;42691;47.234;27.494;2022-07-03T07:52:30;99973.41;;;27.98;100.00
56811;BME280;42691;47.234;27.494;2022-07-03T07:54:55;99971.75;;;27.97;100.00
56811;BME280;42691;47.234;27.494;2022-07-03T07:57:21;99979.09;;;27.95;100.00
56811;BME280;42691;47.234;27.494;2022-07-03T07:59:46;99976.97;;;27.90;100.00
56811;BME280;42691;47.234;27.494;2022-07-03T08:02:12;99974.28;;;27.90;100.00
56811;BME280;42691;47.234;27.494;2022-07-03T08:04:56;99971.94;;;27.87;100.00
56811;BME280;42691;47.234;27.494;2022-07-03T08:07:40;99975.63;;;27.86;100.00
56811;BME280;42691;47.234;27.494;2022-07-03T08:10:06;99981.34;;;27.83;100.00
56811;BME280;42691;47.234;27.494;2022-07-03T08:12:31;99979.69;;;27.82;100.00
56811;BME280;42691;47.234;27.494;2022-07-03T08:14:57;99980.88;;;27.80;100.00
56811;BME280;42691;47.234;27.494;2022-07-03T08:17:22;99975.75;;;27.70;100.00
56811;BME280;42691;47.234;27.494;2022-07-03T08:19:47;99983.72;;;27.78;100.00
56811;BME280;42691;47.234;27.494;2022-07-03T08:22:13;99990.31;;;27.67;100.00
56811;BME280;42691;47.234;27.494;2022-07-03T08:24:38;99993.63;;;27.69;100.00
56811;BME280;42691;47.234;27.494;2022-07-03T08:27:05;99990.13;;;27.69;100.00
56811;BME280;42691;47.234;27.494;2022-07-03T08:29:30;99987.81;;;27.66;100.00
56811;BME280;42691;47.234;27.494;2022-07-03T08:31:56;99991.84;;;27.62;100.00
56811;BME280;42691;47.234;27.494;2022-07-03T08:34:22;99988.16;;;27.63;100.00
56811;BME280;42691;47.234;27.494;2022-07-03T08:36:48;99991.88;;;27.54;100.00
56811;BME280;42691;47.234;27.494;2022-07-03T08:39:14;99999.03;;;27.61;100.00
56811;BME280;42691;47.234;27.494;2022-07-03T08:41:40;99994.53;;;27.62;100.00
56811;BME280;42691;47.234;27.494;2022-07-03T08:44:11;100002.88;;;27.59;100.00
56811;BME280;42691;47.234;27.494;2022-07-03T08:46:38;99994.84;;;27.59;100.00
56811;BME280;42691;47.234;27.494;2022-07-03T08:49:06;99990.00;;;27.62;100.00
56811;BME280;42691;47.234;27.494;2022-07-03T08:51:32;100004.50;;;27.68;100.00
56811;BME280;42691;47.234;27.494;2022-07-03T08:54:00;100004.63;;;27.75;100.00
56811;BME280;42691;47.234;27.494;2022-07-03T08:56:27;100007.94;;;27.77;100.00
56811;BME280;42691;47.234;27.494;2022-07-03T08:58:54;99998.53;;;27.89;100.00
56811;BME280;42691;47.234;27.494;2022-07-03T09:01:21;100007.84;;;28.16;100.00
56811;BME280;42691;47.234;27.494;2022-07-03T09:03:46;99991.56;;;28.48;100.00
56811;BME280;42691;47.234;27.494;2022-07-03T09:06:13;100004.91;;;28.71;100.00
56811;BME280;42691;47.234;27.494;2022-07-03T09:08:40;99988.22;;;28.46;100.00
56811;BME280;42691;47.234;27.494;2022-07-03T09:11:06;99996.63;;;28.58;100.00
56811;BME280;42691;47.234;27.494;2022-07-03T09:13:31;99995.09;;;28.63;100.00
56811;BME280;42691;47.234;27.494;2022-07-03T09:15:57;99997.03;;;28.70;100.00
56811;BME280;42691;47.234;27.494;2022-07-03T09:18:39;99994.84;;;28.73;100.00
56811;BME280;42691;47.234;27.494;2022-07-03T09:21:05;99995.56;;;28.82;100.00
56811;BME280;42691;47.234;27.494;2022-07-03T09:23:36;99988.69;;;29.02;100.00
56811;BME280;42691;47.234;27.494;2022-07-03T09:26:03;99982.78;;;29.07;100.00
56811;BME280;42691;47.234;27.494;2022-07-03T09:28:51;99986.66;;;29.04;100.00
56811;BME280;42691;47.234;27.494;2022-07-03T09:31:19;99975.56;;;29.07;100.00
56811;BME280;42691;47.234;27.494;2022-07-03T09:34:02;99988.88;;;29.15;100.00
56811;BME280;42691;47.234;27.494;2022-07-03T09:39:29;99980.72;;;29.23;100.00
56811;BME280;42691;47.234;27.494;2022-07-03T09:42:08;99978.69;;;29.25;100.00
56811;BME280;42691;47.234;27.494;2022-07-03T09:44:42;99975.88;;;29.34;100.00
56811;BME280;42691;47.234;27.494;2022-07-03T09:47:19;99977.94;;;29.32;100.00
56811;BME280;42691;47.234;27.494;2022-07-03T09:49:45;99974.25;;;29.47;100.00
56811;BME280;42691;47.234;27.494;2022-07-03T09:54:56;99975.34;;;29.53;100.00
56811;BME280;42691;47.234;27.494;2022-07-03T09:57:22;99968.44;;;29.65;100.00
56811;BME280;42691;47.234;27.494;2022-07-03T09:59:48;99968.72;;;29.70;100.00
56811;BME280;42691;47.234;27.494;2022-07-03T10:02:14;99972.97;;;29.65;100.00
56811;BME280;42691;47.234;27.494;2022-07-03T10:04:39;99961.81;;;29.61;100.00
56811;BME280;42691;47.234;27.494;2022-07-03T10:07:05;99963.63;;;29.75;100.00
56811;BME280;42691;47.234;27.494;2022-07-03T10:09:32;99969.06;;;29.82;100.00
56811;BME280;42691;47.234;27.494;2022-07-03T10:12:00;99960.81;;;29.83;100.00
56811;BME280;42691;47.234;27.494;2022-07-03T10:14:28;99959.53;;;29.79;100.00
56811;BME280;42691;47.234;27.494;2022-07-03T10:16:55;99949.44;;;29.81;100.00
56811;BME280;42691;47.234;27.494;2022-07-03T10:19:38;99952.53;;;29.78;100.00
56811;BME280;42691;47.234;27.494;2022-07-03T10:22:19;99948.09;;;29.92;100.00
56811;BME280;42691;47.234;27.494;2022-07-03T10:24:47;99932.97;;;30.06;100.00
56811;BME280;42691;47.234;27.494;2022-07-03T10:27:14;99941.09;;;30.40;100.00
56811;BME280;42691;47.234;27.494;2022-07-03T10:29:39;99945.75;;;30.53;100.00
56811;BME280;42691;47.234;27.494;2022-07-03T10:32:06;99942.13;;;30.67;100.00
56811;BME280;42691;47.234;27.494;2022-07-03T10:34:33;99939.69;;;30.72;100.00
56811;BME280;42691;47.234;27.494;2022-07-03T10:37:01;99926.34;;;30.58;100.00
56811;BME280;42691;47.234;27.494;2022-07-03T10:43:02;99925.19;;;30.67;100.00
56811;BME280;42691;47.234;27.494;2022-07-03T10:49:05;99898.13;;;31.09;100.00
56811;BME280;42691;47.234;27.494;2022-07-03T10:51:55;99911.78;;;31.15;100.00
56811;BME280;42691;47.234;27.494;2022-07-03T11:07:31;99896.81;;;30.86;100.00
56811;BME280;42691;47.234;27.494;2022-07-03T11:20:30;99884.06;;;31.14;100.00
56811;BME280;42691;47.234;27.494;2022-07-03T11:23:19;99872.41;;;31.35;100.00
56811;BME280;42691;47.234;27.494;2022-07-03T11:25:53;99880.06;;;31.45;100.00
56811;BME280;42691;47.234;27.494;2022-07-03T11:41:30;99857.09;;;31.49;100.00
56811;BME280;42691;47.234;27.494;2022-07-03T11:44:00;99844.47;;;31.42;100.00
56811;BME280;42691;47.234;27.494;2022-07-03T11:46:29;99843.03;;;31.53;100.00
56811;BME280;42691;47.234;27.494;2022-07-03T11:49:19;99848.00;;;31.50;100.00
56811;BME280;42691;47.234;27.494;2022-07-03T11:52:02;99836.03;;;31.65;100.00
56811;BME280;42691;47.234;27.494;2022-07-03T11:54:32;99834.34;;;31.58;100.00
56811;BME280;42691;47.234;27.494;2022-07-03T11:57:14;99821.34;;;31.61;100.00
56811;BME280;42691;47.234;27.494;2022-07-03T11:59:39;99825.91;;;31.61;100.00
56811;BME280;42691;47.234;27.494;2022-07-03T12:02:05;99820.09;;;31.64;100.00
56811;BME280;42691;47.234;27.494;2022-07-03T12:04:31;99811.66;;;31.74;100.00
56811;BME280;42691;47.234;27.494;2022-07-03T12:06:58;99817.22;;;31.65;100.00
56811;BME280;42691;47.234;27.494;2022-07-03T12:09:29;99813.66;;;31.58;100.00
56811;BME280;42691;47.234;27.494;2022-07-03T12:12:06;99803.53;;;31.54;100.00
56811;BME280;42691;47.234;27.494;2022-07-03T12:14:48;99802.75;;;31.80;100.00
56811;BME280;42691;47.234;27.494;2022-07-03T12:22:10;99804.81;;;31.64;100.00
56811;BME280;42691;47.234;27.494;2022-07-03T12:24:36;99792.00;;;31.73;100.00
56811;BME280;42691;47.234;27.494;2022-07-03T12:27:04;99795.28;;;31.82;100.00
56811;BME280;42691;47.234;27.494;2022-07-03T12:29:30;99799.63;;;31.83;100.00
56811;BME280;42691;47.234;27.494;2022-07-03T12:31:56;99784.91;;;31.92;100.00
56811;BME280;42691;47.234;27.494;2022-07-03T12:34:22;99794.03;;;31.91;100.00
56811;BME280;42691;47.234;27.494;2022-07-03T12:36:55;99791.34;;;31.91;100.00
56811;BME280;42691;47.234;27.494;2022-07-03T12:39:21;99784.50;;;31.95;100.00
56811;BME280;42691;47.234;27.494;2022-07-03T12:41:47;99783.69;;;32.01;100.00
56811;BME280;42691;47.234;27.494;2022-07-03T12:44:12;99784.09;;;32.05;100.00
56811;BME280;42691;47.234;27.494;2022-07-03T12:46:43;99782.47;;;31.97;100.00
56811;BME280;42691;47.234;27.494;2022-07-03T12:49:10;99777.28;;;31.89;100.00
56811;BME280;42691;47.234;27.494;2022-07-03T12:51:43;99777.28;;;31.82;100.00
56811;BME280;42691;47.234;27.494;2022-07-03T12:56:39;99770.06;;;31.76;100.00
56811;BME280;42691;47.234;27.494;2022-07-03T12:59:05;99761.16;;;31.76;100.00
56811;BME280;42691;47.234;27.494;2022-07-03T13:01:44;99777.28;;;31.82;100.00
56811;BME280;42691;47.234;27.494;2022-07-03T13:04:10;99758.66;;;31.67;100.00
56811;BME280;42691;47.234;27.494;2022-07-03T13:06:44;99767.97;;;31.85;100.00
56811;BME280;42691;47.234;27.494;2022-07-03T13:09:13;99764.44;;;31.97;100.00
56811;BME280;42691;47.234;27.494;2022-07-03T13:11:41;99762.59;;;31.85;100.00
56811;BME280;42691;47.234;27.494;2022-07-03T13:14:14;99774.59;;;31.76;100.00
56811;BME280;42691;47.234;27.494;2022-07-03T13:16:46;99765.91;;;31.60;100.00
56811;BME280;42691;47.234;27.494;2022-07-03T13:19:25;99766.31;;;31.64;100.00
56811;BME280;42691;47.234;27.494;2022-07-03T13:21:54;99763.00;;;31.55;100.00
56811;BME280;42691;47.234;27.494;2022-07-03T13:24:20;99766.91;;;31.53;100.00
56811;BME280;42691;47.234;27.494;2022-07-03T13:26:47;99762.56;;;31.58;100.00
56811;BME280;42691;47.234;27.494;2022-07-03T13:29:13;99755.16;;;31.60;100.00
56811;BME280;42691;47.234;27.494;2022-07-03T13:31:39;99758.47;;;31.62;100.00
56811;BME280;42691;47.234;27.494;2022-07-03T13:34:05;99760.53;;;31.60;100.00
56811;BME280;42691;47.234;27.494;2022-07-03T13:36:31;99758.22;;;31.57;100.00
56811;BME280;42691;47.234;27.494;2022-07-03T13:38:57;99757.63;;;31.49;100.00
56811;BME280;42691;47.234;27.494;2022-07-03T13:41:23;99759.28;;;31.50;100.00
56811;BME280;42691;47.234;27.494;2022-07-03T13:43:49;99754.72;;;31.70;100.00
56811;BME280;42691;47.234;27.494;2022-07-03T13:46:16;99750.19;;;31.77;100.00
56811;BME280;42691;47.234;27.494;2022-07-03T13:48:42;99756.41;;;31.78;100.00
56811;BME280;42691;47.234;27.494;2022-07-03T13:51:08;99745.63;;;31.78;100.00
56811;BME280;42691;47.234;27.494;2022-07-03T13:53:34;99750.41;;;31.76;100.00
56811;BME280;42691;47.234;27.494;2022-07-03T13:56:00;99749.31;;;31.90;100.00
56811;BME280;42691;47.234;27.494;2022-07-03T13:58:26;99744.78;;;31.84;100.00
56811;BME280;42691;47.234;27.494;2022-07-03T14:00:52;99742.28;;;31.95;100.00
56811;BME280;42691;47.234;27.494;2022-07-03T14:03:18;99729.44;;;32.04;100.00
56811;BME280;42691;47.234;27.494;2022-07-03T14:05:45;99734.38;;;32.14;100.00
56811;BME280;42691;47.234;27.494;2022-07-03T14:08:11;99722.00;;;31.99;100.00
56811;BME280;42691;47.234;27.494;2022-07-03T14:10:37;99728.41;;;32.05;100.00
56811;BME280;42691;47.234;27.494;2022-07-03T14:13:03;99717.75;;;32.23;100.00
56811;BME280;42691;47.234;27.494;2022-07-03T14:15:29;99714.88;;;32.25;100.00
56811;BME280;42691;47.234;27.494;2022-07-03T14:17:54;99706.63;;;32.13;100.00
56811;BME280;42691;47.234;27.494;2022-07-03T14:20:21;99705.34;;;32.22;100.00